Time;durP1;ratioP1;P1;durP2;ratioP2;P2;SDS_P1;SDS_P2;PMS_P1;PMS_P2;Temp;Humidity;BMP_temperature;BMP_pressure;BME280_temperature;BME280_humidity;BME280_pressure;Samples;Min_cycle;Max_cycle;Signal;HPM_P1;HPM_P2
2022/10/14 00:00:04;;;;;;;9.07;8.77;;;12.10;99.90;;;;;;5115302;28;20252;-77
2022/10/14 00:02:32;;;;;;;9.50;9.20;;;12.10;99.90;;;;;;5109338;28;20235;-79
2022/10/14 00:04:59;;;;;;;9.30;9.00;;;12.10;99.90;;;;;;5099399;28;20234;-79
2022/10/14 00:07:27;;;;;;;8.97;8.67;;;12.10;99.90;;;;;;5101098;28;20268;-79
2022/10/14 00:09:54;;;;;;;9.30;9.00;;;12.10;99.90;;;;;;5087119;28;20244;-78
2022/10/14 00:12:23;;;;;;;9.13;8.83;;;12.10;99.90;;;;;;5111146;28;20269;-79
2022/10/14 00:14:50;;;;;;;9.10;8.80;;;12.10;99.90;;;;;;5103329;28;20229;-79
2022/10/14 00:17:18;;;;;;;9.30;9.00;;;12.10;99.90;;;;;;5099652;28;20241;-78
2022/10/14 00:19:45;;;;;;;9.00;8.70;;;12.20;99.90;;;;;;5099508;28;20298;-79
2022/10/14 00:22:13;;;;;;;8.70;8.50;;;12.20;99.90;;;;;;5083548;28;20234;-79
2022/10/14 00:24:40;;;;;;;9.17;8.87;;;12.20;99.90;;;;;;5080912;28;20288;-78
2022/10/14 00:27:08;;;;;;;8.77;8.50;;;12.20;99.90;;;;;;5080954;28;20254;-79
2022/10/14 00:29:37;;;;;;;8.90;8.60;;;12.20;99.90;;;;;;5080253;28;20238;-79
2022/10/14 00:32:05;;;;;;;8.97;8.67;;;12.20;99.90;;;;;;5079971;28;20282;-79
2022/10/14 00:34:33;;;;;;;8.90;8.60;;;12.30;99.90;;;;;;5079039;28;20242;-79
2022/10/14 00:37:00;;;;;;;8.63;8.43;;;12.20;99.90;;;;;;5079063;28;20261;-78
2022/10/14 00:39:28;;;;;;;8.67;8.47;;;12.30;99.90;;;;;;5079573;28;20234;-79
2022/10/14 00:41:55;;;;;;;8.90;8.60;;;12.30;99.90;;;;;;5079501;28;20245;-78
2022/10/14 00:45:03;;;;;;;8.93;8.63;;;12.30;99.90;;;;;;5079255;28;20224;-78
2022/10/14 00:47:31;;;;;;;8.67;8.47;;;12.30;99.90;;;;;;5087763;28;20238;-79
2022/10/14 00:50:00;;;;;;;9.00;8.70;;;12.20;99.90;;;;;;5096475;28;20240;-78
2022/10/14 00:52:28;;;;;;;8.97;8.67;;;12.30;99.90;;;;;;5099800;28;20231;-79
2022/10/14 00:55:01;;;;;;;8.97;8.67;;;12.20;99.90;;;;;;5099302;28;20229;-78
2022/10/14 00:57:31;;;;;;;8.53;8.33;;;12.20;99.90;;;;;;5100339;28;20268;-79
2022/10/14 01:00:07;;;;;;;9.10;8.80;;;12.20;99.90;;;;;;5099977;28;20257;-78
2022/10/14 01:02:34;;;;;;;9.00;8.70;;;12.30;99.90;;;;;;5099430;28;20360;-79
2022/10/14 01:05:06;;;;;;;9.20;8.90;;;12.30;99.90;;;;;;5099522;28;20232;-79
2022/10/14 01:07:43;;;;;;;8.63;8.43;;;12.30;99.90;;;;;;5099555;28;20232;-79
2022/10/14 01:10:17;;;;;;;9.00;8.70;;;12.30;99.90;;;;;;5099061;28;20228;-79
2022/10/14 01:13:03;;;;;;;8.90;8.60;;;12.40;99.90;;;;;;5098958;28;20306;-79
2022/10/14 01:15:41;;;;;;;8.90;8.60;;;12.30;99.90;;;;;;5098558;28;20294;-79
2022/10/14 01:18:21;;;;;;;9.00;8.70;;;12.30;99.90;;;;;;5099105;28;20305;-79
2022/10/14 01:21:10;;;;;;;9.10;8.80;;;12.40;99.90;;;;;;5099772;28;20768;-78
2022/10/14 01:24:31;;;;;;;9.00;8.70;;;12.40;99.90;;;;;;5099243;28;20234;-78
2022/10/14 01:27:38;;;;;;;8.90;8.60;;;12.40;99.90;;;;;;5091238;28;20217;-79
2022/10/14 01:30:17;;;;;;;9.20;8.90;;;12.40;99.90;;;;;;5098706;28;20233;-78
2022/10/14 01:33:06;;;;;;;9.17;8.87;;;12.30;99.90;;;;;;5099767;28;20220;-79
2022/10/14 01:35:43;;;;;;;8.80;8.50;;;12.30;99.90;;;;;;5101696;28;20234;-77
2022/10/14 01:38:18;;;;;;;9.10;8.80;;;12.20;99.90;;;;;;5109098;28;20240;-79
2022/10/14 01:40:52;;;;;;;8.90;8.60;;;12.20;99.90;;;;;;5091249;28;20712;-79
2022/10/14 01:43:23;;;;;;;9.20;8.90;;;12.20;99.90;;;;;;5099338;28;20288;-79
2022/10/14 01:45:54;;;;;;;8.97;8.67;;;12.20;99.90;;;;;;5099144;28;20316;-79
2022/10/14 01:48:28;;;;;;;9.10;8.80;;;12.20;99.90;;;;;;5099717;28;20222;-78
2022/10/14 01:51:01;;;;;;;8.90;8.60;;;12.20;99.90;;;;;;5099045;28;20272;-79
2022/10/14 01:53:35;;;;;;;9.00;8.70;;;12.20;99.90;;;;;;5099349;28;20237;-78
2022/10/14 01:56:04;;;;;;;8.90;8.60;;;12.20;99.90;;;;;;5098355;28;20229;-79
2022/10/14 01:58:33;;;;;;;9.23;8.93;;;12.20;99.90;;;;;;5095919;28;20226;-79
2022/10/14 02:01:05;;;;;;;8.90;8.60;;;12.20;99.90;;;;;;5081372;28;20233;-79
2022/10/14 02:03:41;;;;;;;8.70;8.50;;;12.20;99.90;;;;;;5078751;28;20230;-79
2022/10/14 02:06:15;;;;;;;9.00;8.70;;;12.20;99.90;;;;;;5079224;28;20240;-79
2022/10/14 02:09:01;;;;;;;9.10;8.80;;;12.20;99.90;;;;;;5081794;28;20237;-79
2022/10/14 02:11:38;;;;;;;9.03;8.73;;;12.30;99.90;;;;;;5081029;28;20242;-79
2022/10/14 02:14:25;;;;;;;9.30;9.00;;;12.30;99.90;;;;;;5077356;28;20230;-78
2022/10/14 02:17:01;;;;;;;9.00;8.70;;;12.30;99.90;;;;;;5075612;28;20320;-81
2022/10/14 02:19:35;;;;;;;9.00;8.70;;;12.20;99.90;;;;;;5076907;28;20257;-79
2022/10/14 02:22:09;;;;;;;9.03;8.73;;;12.30;99.90;;;;;;5077151;28;20233;-79
2022/10/14 02:24:42;;;;;;;9.00;8.70;;;12.30;99.90;;;;;;5079381;28;20272;-79
2022/10/14 02:27:15;;;;;;;8.90;8.60;;;12.30;99.90;;;;;;5081118;28;20249;-79
2022/10/14 02:29:46;;;;;;;8.90;8.60;;;12.30;99.90;;;;;;5089047;28;20226;-79
2022/10/14 02:32:19;;;;;;;8.90;8.60;;;12.30;99.90;;;;;;5084323;28;20291;-79
2022/10/14 02:34:51;;;;;;;9.10;8.80;;;12.30;99.90;;;;;;5082446;28;20229;-79
2022/10/14 02:37:21;;;;;;;9.20;8.90;;;12.30;99.90;;;;;;5082408;28;20244;-79
2022/10/14 02:39:56;;;;;;;8.90;8.60;;;12.30;99.90;;;;;;5081436;28;20226;-79
2022/10/14 02:42:23;;;;;;;8.97;8.67;;;12.30;99.90;;;;;;5082234;28;20243;-79
2022/10/14 02:44:55;;;;;;;9.03;8.73;;;12.30;99.90;;;;;;5081380;28;20316;-79
2022/10/14 02:47:25;;;;;;;9.03;8.73;;;12.30;99.90;;;;;;5082410;28;20222;-79
2022/10/14 02:49:53;;;;;;;8.87;8.57;;;12.30;99.90;;;;;;5081697;28;20236;-79
2022/10/14 02:52:21;;;;;;;8.60;8.40;;;12.30;99.90;;;;;;5082148;28;20222;-79
2022/10/14 02:54:48;;;;;;;8.70;8.50;;;12.30;99.90;;;;;;5081778;28;20233;-79
2022/10/14 02:57:16;;;;;;;8.67;8.47;;;12.30;99.90;;;;;;5081529;28;20241;-78
2022/10/14 02:59:43;;;;;;;8.73;8.50;;;12.30;99.90;;;;;;5082275;28;20230;-79
2022/10/14 03:02:11;;;;;;;9.13;8.83;;;12.40;99.90;;;;;;5082338;28;20294;-79
2022/10/14 03:04:40;;;;;;;9.10;8.80;;;12.40;99.90;;;;;;5081362;28;20229;-79
2022/10/14 03:07:07;;;;;;;9.10;8.80;;;12.40;99.90;;;;;;5081981;28;20333;-78
2022/10/14 03:09:35;;;;;;;9.20;8.90;;;12.40;99.90;;;;;;5085991;28;20226;-79
2022/10/14 03:12:02;;;;;;;8.93;8.63;;;12.40;99.90;;;;;;5086033;28;20252;-78
2022/10/14 03:14:30;;;;;;;9.00;8.70;;;12.40;99.90;;;;;;5083229;28;20226;-79
2022/10/14 03:16:58;;;;;;;9.10;8.80;;;12.30;99.90;;;;;;5083656;28;20294;-79
2022/10/14 03:19:25;;;;;;;8.90;8.60;;;12.30;99.90;;;;;;5085388;28;20234;-79
2022/10/14 03:21:54;;;;;;;8.73;8.53;;;12.30;99.90;;;;;;5094557;28;20234;-78
2022/10/14 03:24:22;;;;;;;8.63;8.43;;;12.30;99.90;;;;;;5099971;28;20269;-78
2022/10/14 03:26:49;;;;;;;9.10;8.80;;;12.30;99.90;;;;;;5099441;28;20290;-78
2022/10/14 03:29:17;;;;;;;8.80;8.50;;;12.20;99.90;;;;;;5099723;28;20210;-79
2022/10/14 03:31:45;;;;;;;8.90;8.60;;;12.20;99.90;;;;;;5100155;28;20277;-78
2022/10/14 03:34:12;;;;;;;8.60;8.40;;;12.20;99.90;;;;;;5097392;28;20254;-78
2022/10/14 03:36:40;;;;;;;8.90;8.60;;;12.20;99.90;;;;;;5096307;28;20340;-79
2022/10/14 03:39:10;;;;;;;8.70;8.50;;;12.20;99.90;;;;;;5097482;28;20285;-78
2022/10/14 03:41:38;;;;;;;9.00;8.70;;;12.20;99.90;;;;;;5095713;28;20210;-79
2022/10/14 03:44:05;;;;;;;8.77;8.53;;;12.20;99.90;;;;;;5089072;28;20241;-79
2022/10/14 03:46:33;;;;;;;8.80;8.60;;;12.20;99.90;;;;;;5087098;28;20330;-79
2022/10/14 03:49:00;;;;;;;8.70;8.50;;;12.30;99.90;;;;;;5086979;28;20234;-78
2022/10/14 03:51:28;;;;;;;8.57;8.37;;;12.30;99.90;;;;;;5083972;28;20238;-79
2022/10/14 03:53:55;;;;;;;9.00;8.70;;;12.30;99.90;;;;;;5080352;28;20325;-79
2022/10/14 03:56:24;;;;;;;8.80;8.60;;;12.30;99.90;;;;;;5080268;28;20298;-79
2022/10/14 03:58:52;;;;;;;8.90;8.60;;;12.30;99.90;;;;;;5081418;28;20257;-79
2022/10/14 04:01:19;;;;;;;9.00;8.70;;;12.20;99.90;;;;;;5093312;28;20245;-78
2022/10/14 04:03:47;;;;;;;9.00;8.70;;;12.20;99.90;;;;;;5096347;28;20257;-77
2022/10/14 04:06:14;;;;;;;8.60;8.40;;;12.20;99.90;;;;;;5095684;28;20231;-77
2022/10/14 04:08:42;;;;;;;8.30;8.10;;;12.20;99.90;;;;;;5095982;28;20282;-77
2022/10/14 04:11:10;;;;;;;8.30;8.10;;;12.20;99.90;;;;;;5096194;28;20218;-77
2022/10/14 04:13:39;;;;;;;8.30;8.10;;;12.20;99.90;;;;;;5096748;28;20222;-77
2022/10/14 04:16:08;;;;;;;8.50;8.30;;;12.20;99.90;;;;;;5095235;28;20242;-78
2022/10/14 04:18:37;;;;;;;8.40;8.20;;;12.20;99.90;;;;;;5096838;28;20221;-77
2022/10/14 04:21:07;;;;;;;8.40;8.20;;;12.20;99.90;;;;;;5095752;28;20234;-78
2022/10/14 04:23:35;;;;;;;8.20;8.00;;;12.20;99.90;;;;;;5096005;28;20230;-79
2022/10/14 04:26:05;;;;;;;8.40;8.20;;;12.20;99.90;;;;;;5094042;28;20286;-78
2022/10/14 04:28:33;;;;;;;8.23;8.03;;;12.20;99.90;;;;;;5091918;28;20221;-78
2022/10/14 04:31:02;;;;;;;8.30;8.10;;;12.20;99.90;;;;;;5095082;28;20246;-78
2022/10/14 04:33:29;;;;;;;8.20;8.00;;;12.20;99.90;;;;;;5096319;28;20302;-78
2022/10/14 04:36:00;;;;;;;8.10;7.90;;;12.20;99.90;;;;;;5095113;28;20252;-77
2022/10/14 04:38:29;;;;;;;8.00;7.80;;;12.20;99.90;;;;;;5095899;28;20262;-78
2022/10/14 04:40:57;;;;;;;8.13;7.93;;;12.30;99.90;;;;;;5095139;28;20230;-79
2022/10/14 04:43:24;;;;;;;8.10;7.90;;;12.20;99.90;;;;;;5093018;28;20240;-80
2022/10/14 04:45:52;;;;;;;8.13;7.93;;;12.30;99.90;;;;;;5090356;28;20234;-79
2022/10/14 04:48:21;;;;;;;8.60;8.40;;;12.30;99.90;;;;;;5086562;28;20226;-78
2022/10/14 04:50:51;;;;;;;8.37;8.17;;;12.30;99.90;;;;;;5091756;28;20258;-79
2022/10/14 04:53:19;;;;;;;8.47;8.27;;;12.30;99.90;;;;;;5084756;28;20312;-79
2022/10/14 04:55:48;;;;;;;8.50;8.30;;;12.30;99.90;;;;;;5080591;28;20244;-79
2022/10/14 04:58:16;;;;;;;8.30;8.10;;;12.30;99.90;;;;;;5078707;28;20230;-79
2022/10/14 05:00:44;;;;;;;8.73;8.53;;;12.30;99.90;;;;;;5078391;28;20237;-79
2022/10/14 05:03:11;;;;;;;8.63;8.43;;;12.30;99.90;;;;;;5078494;28;20248;-79
2022/10/14 05:05:40;;;;;;;8.67;8.47;;;12.30;99.90;;;;;;5077653;28;20226;-79
2022/10/14 05:08:08;;;;;;;8.87;8.67;;;12.30;99.90;;;;;;5079200;28;20346;-80
2022/10/14 05:10:36;;;;;;;8.90;8.60;;;12.30;99.90;;;;;;5078626;28;20325;-79
2022/10/14 05:13:03;;;;;;;9.00;8.70;;;12.30;99.90;;;;;;5078163;28;20229;-80
2022/10/14 05:15:31;;;;;;;8.70;8.50;;;12.30;99.90;;;;;;5068681;28;20253;-79
2022/10/14 05:17:58;;;;;;;8.50;8.30;;;12.30;99.90;;;;;;5087315;28;20293;-79
2022/10/14 05:20:26;;;;;;;8.70;8.50;;;12.40;99.90;;;;;;5101265;28;20803;-79
2022/10/14 05:22:55;;;;;;;8.90;8.60;;;12.40;99.90;;;;;;5098475;28;20233;-81
2022/10/14 05:25:22;;;;;;;8.70;8.50;;;12.40;99.90;;;;;;5103443;28;20260;-79
2022/10/14 05:27:51;;;;;;;8.77;8.57;;;12.40;99.90;;;;;;5087332;28;20232;-79
2022/10/14 05:30:18;;;;;;;9.30;9.00;;;12.40;99.90;;;;;;5098759;28;20233;-81
2022/10/14 05:32:46;;;;;;;8.70;8.50;;;12.40;99.90;;;;;;5098479;28;20235;-79
2022/10/14 05:35:13;;;;;;;8.70;8.50;;;12.40;99.90;;;;;;5097300;28;20241;-80
2022/10/14 05:37:41;;;;;;;9.00;8.70;;;12.40;99.90;;;;;;5097984;28;20244;-80
2022/10/14 05:40:11;;;;;;;9.17;8.87;;;12.40;99.90;;;;;;5097969;28;20291;-79
2022/10/14 05:42:39;;;;;;;8.97;8.67;;;12.40;99.90;;;;;;5097517;28;20229;-80
2022/10/14 05:45:08;;;;;;;9.33;9.03;;;12.50;99.90;;;;;;5098273;28;20221;-80
2022/10/14 05:47:35;;;;;;;9.60;9.30;;;12.50;99.90;;;;;;5097833;28;20235;-80
2022/10/14 05:50:03;;;;;;;9.45;9.15;;;12.50;99.90;;;;;;5089718;28;20406;-81
2022/10/14 05:52:32;;;;;;;9.33;9.03;;;12.50;99.90;;;;;;5099868;28;20233;-81
2022/10/14 05:54:59;;;;;;;9.50;9.20;;;12.50;99.90;;;;;;5097949;28;20259;-81
2022/10/14 05:57:29;;;;;;;9.63;9.33;;;12.60;99.90;;;;;;5099041;28;20237;-81
2022/10/14 05:59:57;;;;;;;9.53;9.23;;;12.60;99.90;;;;;;5102025;28;20324;-81
2022/10/14 06:02:24;;;;;;;9.50;9.20;;;12.60;99.90;;;;;;5101929;28;20697;-81
2022/10/14 06:04:52;;;;;;;9.07;8.77;;;12.60;99.90;;;;;;5101839;28;20248;-82
2022/10/14 06:07:21;;;;;;;9.10;8.80;;;12.60;99.90;;;;;;5102737;28;20276;-82
2022/10/14 06:09:49;;;;;;;9.20;8.90;;;12.60;99.90;;;;;;5102639;28;20676;-82
2022/10/14 06:12:17;;;;;;;9.20;8.90;;;12.60;99.90;;;;;;5102324;28;20253;-82
2022/10/14 06:14:46;;;;;;;9.10;8.80;;;12.60;99.90;;;;;;5101150;28;20260;-81
2022/10/14 06:17:14;;;;;;;9.60;9.30;;;12.60;99.90;;;;;;5096160;28;20276;-81
2022/10/14 06:19:41;;;;;;;9.30;9.00;;;12.60;99.90;;;;;;5093006;28;20293;-82
2022/10/14 06:22:09;;;;;;;9.20;8.90;;;12.60;99.90;;;;;;5102110;28;20249;-81
2022/10/14 06:24:37;;;;;;;9.20;8.90;;;12.60;99.90;;;;;;5101806;28;20233;-82
2022/10/14 06:27:05;;;;;;;9.37;9.07;;;12.70;99.90;;;;;;5101746;28;20229;-83
2022/10/14 06:29:36;;;;;;;9.33;9.03;;;12.70;99.90;;;;;;5075642;28;20314;-82
2022/10/14 06:32:07;;;;;;;9.00;8.70;;;12.70;99.90;;;;;;5061018;28;20234;-82
2022/10/14 06:34:35;;;;;;;9.00;8.70;;;12.80;99.90;;;;;;5060433;28;20231;-82
2022/10/14 06:37:03;;;;;;;8.70;8.50;;;12.90;99.90;;;;;;5061035;28;20261;-82
2022/10/14 06:39:31;;;;;;;8.77;8.57;;;12.90;99.90;;;;;;5060968;28;20234;-82
2022/10/14 06:41:58;;;;;;;8.50;8.30;;;13.00;99.90;;;;;;5078369;28;20234;-82
2022/10/14 06:44:26;;;;;;;8.70;8.50;;;13.00;99.90;;;;;;5087415;28;20256;-82
2022/10/14 06:46:54;;;;;;;8.50;8.30;;;13.00;99.90;;;;;;5091837;28;20221;-82
2022/10/14 06:49:23;;;;;;;8.80;8.60;;;13.00;99.90;;;;;;5101148;28;20325;-81
2022/10/14 06:51:52;;;;;;;8.80;8.60;;;13.00;99.90;;;;;;5093005;28;20298;-82
2022/10/14 06:54:21;;;;;;;8.63;8.43;;;13.00;99.90;;;;;;5082387;28;20246;-82
2022/10/14 06:56:49;;;;;;;8.97;8.70;;;13.10;99.90;;;;;;5073556;28;20306;-82
2022/10/14 06:59:16;;;;;;;9.00;8.70;;;13.00;99.90;;;;;;5074932;28;20230;-82
2022/10/14 07:01:44;;;;;;;9.00;8.77;;;13.00;99.90;;;;;;5074096;28;20321;-82
2022/10/14 07:04:11;;;;;;;8.90;8.70;;;13.00;99.90;;;;;;5093100;28;20240;-83
2022/10/14 07:06:40;;;;;;;8.90;8.70;;;13.00;99.90;;;;;;5083750;28;20238;-82
2022/10/14 07:09:08;;;;;;;8.83;8.63;;;13.00;99.90;;;;;;5088400;28;20238;-82
2022/10/14 07:11:35;;;;;;;8.70;8.50;;;13.00;99.90;;;;;;5100647;28;20235;-82
2022/10/14 07:14:03;;;;;;;8.80;8.60;;;13.10;99.90;;;;;;5086889;28;20241;-80
2022/10/14 07:16:32;;;;;;;8.60;8.40;;;13.10;99.90;;;;;;5062770;28;20241;-80
2022/10/14 07:18:59;;;;;;;8.83;8.63;;;13.20;99.90;;;;;;5067041;28;20269;-80
2022/10/14 07:21:27;;;;;;;8.60;8.40;;;13.30;99.90;;;;;;5059980;28;20330;-80
2022/10/14 07:23:56;;;;;;;8.80;8.60;;;13.40;99.90;;;;;;5059194;28;20261;-80
2022/10/14 07:26:24;;;;;;;9.30;9.00;;;13.40;99.90;;;;;;5064268;28;20294;-80
2022/10/14 07:28:51;;;;;;;9.00;8.70;;;13.50;99.90;;;;;;5078346;28;20234;-83
2022/10/14 07:31:19;;;;;;;9.30;9.00;;;13.60;99.90;;;;;;5078775;28;20321;-80
2022/10/14 07:33:46;;;;;;;9.50;9.20;;;13.70;99.90;;;;;;5078705;28;20230;-81
2022/10/14 07:36:17;;;;;;;9.13;8.83;;;13.80;99.90;;;;;;5077973;28;20226;-80
2022/10/14 07:38:47;;;;;;;9.43;9.13;;;13.80;99.90;;;;;;5078800;28;20236;-80
2022/10/14 07:41:25;;;;;;;9.50;9.20;;;13.80;99.90;;;;;;5078854;28;20234;-80
2022/10/14 07:43:55;;;;;;;9.50;9.20;;;13.80;99.90;;;;;;5078959;28;20253;-82
2022/10/14 07:46:30;;;;;;;9.57;9.27;;;13.80;99.90;;;;;;5078303;28;20266;-81
2022/10/14 07:49:02;;;;;;;9.50;9.20;;;13.80;99.90;;;;;;5078725;28;20276;-80
2022/10/14 07:51:30;;;;;;;9.20;8.90;;;13.70;99.90;;;;;;5078666;28;20260;-81
2022/10/14 07:54:00;;;;;;;9.40;9.10;;;13.70;99.90;;;;;;5078870;28;20226;-81
2022/10/14 07:56:29;;;;;;;9.20;8.90;;;13.70;99.90;;;;;;5078136;28;20613;-81
2022/10/14 07:58:58;;;;;;;9.50;9.20;;;13.70;99.90;;;;;;5078305;28;20265;-80
2022/10/14 08:01:25;;;;;;;9.47;9.17;;;13.70;99.90;;;;;;5078909;28;20237;-81
2022/10/14 08:03:53;;;;;;;9.33;9.03;;;13.70;99.90;;;;;;5078519;28;20230;-80
2022/10/14 08:06:24;;;;;;;9.23;8.93;;;13.60;99.90;;;;;;5077591;28;20226;-81
2022/10/14 08:08:55;;;;;;;9.20;8.90;;;13.60;99.90;;;;;;5078268;28;20265;-82
2022/10/14 08:11:25;;;;;;;8.73;8.53;;;13.70;99.90;;;;;;5079001;28;20227;-80
2022/10/14 08:13:54;;;;;;;8.80;8.60;;;13.70;99.90;;;;;;5077812;28;20234;-81
2022/10/14 08:16:24;;;;;;;9.00;8.70;;;13.80;99.90;;;;;;5077605;28;20226;-81
2022/10/14 08:18:53;;;;;;;8.80;8.60;;;13.80;99.90;;;;;;5078479;28;20296;-81
2022/10/14 08:21:21;;;;;;;9.20;8.90;;;13.80;99.90;;;;;;5077529;28;20316;-81
2022/10/14 08:23:49;;;;;;;8.80;8.60;;;13.80;99.90;;;;;;5078271;28;20210;-81
2022/10/14 08:26:24;;;;;;;8.77;8.57;;;13.80;99.90;;;;;;5071846;28;20222;-78
2022/10/14 08:29:00;;;;;;;9.07;8.77;;;13.90;99.90;;;;;;5080050;28;20232;-79
2022/10/14 08:31:28;;;;;;;9.20;8.90;;;14.00;99.90;;;;;;5063808;28;20252;-80
2022/10/14 08:33:55;;;;;;;9.30;9.00;;;14.00;99.90;;;;;;5060597;28;20223;-81
2022/10/14 08:36:23;;;;;;;9.10;8.80;;;14.00;99.90;;;;;;5056255;28;20239;-79
2022/10/14 08:38:54;;;;;;;8.83;8.63;;;14.00;99.90;;;;;;5057309;28;20341;-79
2022/10/14 08:42:00;;;;;;;9.10;8.80;;;14.10;99.90;;;;;;5056869;28;20294;-79
2022/10/14 08:44:40;;;;;;;9.37;9.07;;;14.20;99.90;;;;;;5055696;28;20230;-80
2022/10/14 08:47:14;;;;;;;9.27;8.97;;;14.30;99.90;;;;;;5056268;28;20238;-79
2022/10/14 08:49:55;;;;;;;9.50;9.20;;;14.50;99.90;;;;;;5056410;28;20233;-79
2022/10/14 08:52:28;;;;;;;9.33;9.03;;;14.60;99.90;;;;;;5056950;28;20317;-81
2022/10/14 08:55:01;;;;;;;9.40;9.10;;;14.70;99.90;;;;;;5056218;28;20235;-81
2022/10/14 08:57:34;;;;;;;9.57;9.27;;;14.80;99.90;;;;;;5056230;28;20237;-81
2022/10/14 09:00:05;;;;;;;9.50;9.20;;;15.00;99.90;;;;;;5056535;28;20281;-79
2022/10/14 09:02:43;;;;;;;9.18;8.88;;;15.20;99.90;;;;;;5056451;28;20239;-79
2022/10/14 09:05:16;;;;;;;9.38;9.07;;;15.40;99.90;;;;;;5056509;28;20234;-80
2022/10/14 09:07:46;;;;;;;9.48;9.18;;;15.60;99.90;;;;;;5056837;28;20238;-79
2022/10/14 09:10:25;;;;;;;9.48;9.18;;;15.70;99.90;;;;;;5057092;28;20222;-80
2022/10/14 09:12:56;;;;;;;9.40;9.10;;;15.80;99.90;;;;;;5057056;28;20242;-80
2022/10/14 09:15:33;;;;;;;9.35;9.05;;;15.90;99.90;;;;;;5057361;28;20321;-81
2022/10/14 09:18:08;;;;;;;9.55;9.25;;;16.00;99.90;;;;;;5060984;28;20226;-79
2022/10/14 09:20:35;;;;;;;9.68;9.38;;;16.00;99.90;;;;;;5057339;28;20231;-78
2022/10/14 09:23:16;;;;;;;9.90;9.60;;;16.10;99.90;;;;;;5057244;28;20226;-78
2022/10/14 09:26:00;;;;;;;9.73;9.43;;;16.20;99.90;;;;;;5055599;28;20249;-79
2022/10/14 09:28:37;;;;;;;9.73;9.43;;;16.20;99.90;;;;;;5056230;28;20229;-79
2022/10/14 09:31:09;;;;;;;9.80;9.50;;;16.20;99.90;;;;;;5055829;28;20230;-79
2022/10/14 09:33:38;;;;;;;9.70;9.40;;;16.20;99.90;;;;;;5057560;28;20234;-80
2022/10/14 09:36:10;;;;;;;9.90;9.60;;;16.20;99.90;;;;;;5083370;28;20232;-80
2022/10/14 09:38:38;;;;;;;9.60;9.30;;;16.30;99.90;;;;;;5087596;28;20238;-80
2022/10/14 09:41:11;;;;;;;9.57;9.27;;;16.30;99.90;;;;;;5097235;28;20231;-80
2022/10/14 09:43:38;;;;;;;9.85;9.55;;;16.40;99.90;;;;;;5093288;28;20239;-80
2022/10/14 09:46:09;;;;;;;9.52;9.23;;;16.50;99.90;;;;;;5091169;28;20229;-80
2022/10/14 09:48:42;;;;;;;9.82;9.52;;;16.50;99.90;;;;;;5100039;28;20237;-79
2022/10/14 09:51:18;;;;;;;9.75;9.45;;;16.60;99.90;;;;;;5101411;28;20240;-81
2022/10/14 09:53:50;;;;;;;9.55;9.25;;;16.70;99.90;;;;;;5099787;28;20954;-78
2022/10/14 09:56:29;;;;;;;9.98;9.68;;;16.80;99.90;;;;;;5098388;28;20287;-80
2022/10/14 09:58:59;;;;;;;9.90;9.60;;;16.80;99.90;;;;;;5091631;28;20233;-78
2022/10/14 10:01:33;;;;;;;9.90;9.60;;;16.80;99.90;;;;;;5068166;28;20240;-79
2022/10/14 10:04:36;;;;;;;9.82;9.52;;;16.90;99.90;;;;;;5091862;28;20292;-79
2022/10/14 10:07:07;;;;;;;9.88;9.57;;;16.90;99.90;;;;;;5098382;28;20332;-80
2022/10/14 10:09:35;;;;;;;9.70;9.40;;;17.10;99.90;;;;;;5085979;28;20245;-80
2022/10/14 10:12:24;;;;;;;9.82;9.52;;;17.20;99.90;;;;;;5092201;28;20723;-78
2022/10/14 10:14:58;;;;;;;9.75;9.45;;;17.20;99.90;;;;;;5099761;28;20229;-79
2022/10/14 10:17:28;;;;;;;9.70;9.40;;;17.20;99.90;;;;;;5079841;28;20248;-80
2022/10/14 10:20:18;;;;;;;9.88;9.57;;;17.20;99.90;;;;;;5079530;28;20226;-80
2022/10/14 10:22:46;;;;;;;9.80;9.50;;;17.20;99.90;;;;;;5080733;28;20230;-80
2022/10/14 10:25:25;;;;;;;10.10;9.80;;;17.20;99.90;;;;;;5077754;28;20261;-79
2022/10/14 10:27:54;;;;;;;10.27;9.98;;;17.50;99.90;;;;;;5078591;28;20235;-80
2022/10/14 10:30:26;;;;;;;10.00;9.70;;;17.70;99.90;;;;;;5081382;28;20229;-79
2022/10/14 10:33:18;;;;;;;9.85;9.55;;;17.90;99.90;;;;;;5084111;28;20234;-79
2022/10/14 10:36:05;;;;;;;9.70;9.40;;;18.10;99.90;;;;;;5082766;28;20227;-80
2022/10/14 10:38:44;;;;;;;9.60;9.30;;;18.10;99.90;;;;;;5091296;28;20249;-80
2022/10/14 10:41:45;;;;;;;9.40;9.10;;;18.00;99.90;;;;;;5087175;28;20238;-81
2022/10/14 10:44:31;;;;;;;9.85;9.55;;;17.80;99.90;;;;;;5087039;28;20229;-79
2022/10/14 10:47:15;;;;;;;9.80;9.50;;;17.60;99.90;;;;;;5083935;28;20242;-80
2022/10/14 10:50:30;;;;;;;9.85;9.55;;;17.40;99.90;;;;;;5085431;28;20286;-80
2022/10/14 10:53:39;;;;;;;9.50;9.20;;;17.40;99.90;;;;;;5004128;28;20284;-80
2022/10/14 10:56:19;;;;;;;9.70;9.40;;;17.40;99.90;;;;;;5083228;28;20230;-80
2022/10/14 10:59:19;;;;;;;9.80;9.50;;;17.50;99.90;;;;;;5093444;28;20340;-79
2022/10/14 11:01:53;;;;;;;9.68;9.38;;;17.60;99.90;;;;;;5074334;28;20242;-78
2022/10/14 11:04:30;;;;;;;9.60;9.30;;;17.70;99.90;;;;;;5080998;28;20290;-81
2022/10/14 11:13:00;;;;;;;9.70;9.40;;;18.10;99.90;;;;;;5082070;28;20206;-80
2022/10/14 11:15:42;;;;;;;9.90;9.60;;;18.10;99.90;;;;;;5079193;28;20222;-79
2022/10/14 11:18:18;;;;;;;10.00;9.70;;;18.00;99.90;;;;;;5083022;28;20263;-80
2022/10/14 11:21:04;;;;;;;9.93;9.63;;;18.10;99.90;;;;;;5097290;28;20237;-80
2022/10/14 11:23:58;;;;;;;10.00;9.70;;;18.10;99.90;;;;;;5102012;28;20226;-81
2022/10/14 11:26:44;;;;;;;9.70;9.40;;;18.20;99.90;;;;;;5101270;28;20210;-81
2022/10/14 11:29:34;;;;;;;9.48;9.18;;;18.10;99.90;;;;;;5101251;28;20324;-79
2022/10/14 11:32:10;;;;;;;9.70;9.40;;;18.00;99.90;;;;;;5101224;28;20230;-79
2022/10/14 11:34:52;;;;;;;9.40;9.10;;;18.10;99.90;;;;;;5101381;28;20222;-82
2022/10/14 11:37:36;;;;;;;9.80;9.50;;;18.00;99.90;;;;;;5101306;28;20241;-81
2022/10/14 11:40:17;;;;;;;9.60;9.30;;;18.00;99.90;;;;;;5100474;28;20237;-80
2022/10/14 11:43:01;;;;;;;9.77;9.48;;;18.00;99.90;;;;;;5101673;28;20229;-81
2022/10/14 11:45:50;;;;;;;10.00;9.70;;;18.00;99.90;;;;;;5101007;28;20289;-80
2022/10/14 11:48:28;;;;;;;9.90;9.60;;;17.80;99.90;;;;;;5099897;28;20238;-81
2022/10/14 11:51:15;;;;;;;9.82;9.52;;;17.60;99.90;;;;;;5099565;28;20229;-81
2022/10/14 11:53:52;;;;;;;9.60;9.30;;;17.60;99.90;;;;;;5097464;28;20237;-81
2022/10/14 11:56:41;;;;;;;9.98;9.68;;;17.50;99.90;;;;;;5096767;28;20241;-81
2022/10/14 11:59:28;;;;;;;9.50;9.20;;;17.40;99.90;;;;;;5097143;28;20294;-82
2022/10/14 12:02:02;;;;;;;9.60;9.30;;;17.40;99.90;;;;;;5092012;28;20245;-82
2022/10/14 12:04:36;;;;;;;9.65;9.35;;;17.40;99.90;;;;;;5090496;28;20241;-77
2022/10/14 12:07:11;;;;;;;9.68;9.38;;;17.40;99.90;;;;;;5086093;28;20230;-78
2022/10/14 12:09:43;;;;;;;9.55;9.25;;;17.40;99.90;;;;;;5083337;28;20218;-77
2022/10/14 12:12:19;;;;;;;9.93;9.63;;;17.50;99.90;;;;;;5069868;28;20238;-76
2022/10/14 12:14:50;;;;;;;10.00;9.70;;;17.40;99.90;;;;;;5060873;28;20702;-77
2022/10/14 12:17:30;;;;;;;10.05;9.75;;;17.40;99.90;;;;;;5057482;28;20250;-78
2022/10/14 12:20:02;;;;;;;9.90;9.60;;;17.50;99.90;;;;;;5058203;28;20604;-77
2022/10/14 12:22:32;;;;;;;9.60;9.30;;;17.50;99.90;;;;;;5057340;28;20257;-77
2022/10/14 12:25:06;;;;;;;9.70;9.40;;;17.50;99.90;;;;;;5066516;28;20276;-76
2022/10/14 12:27:37;;;;;;;9.73;9.43;;;17.60;99.90;;;;;;5078315;28;20226;-79
2022/10/14 12:30:05;;;;;;;9.88;9.57;;;17.50;99.90;;;;;;5077147;28;20218;-79
2022/10/14 12:32:33;;;;;;;9.63;9.32;;;17.50;99.90;;;;;;5078203;28;20234;-77
2022/10/14 12:35:01;;;;;;;9.80;9.50;;;17.50;99.90;;;;;;5060466;28;20257;-77
2022/10/14 12:37:55;;;;;;;9.80;9.50;;;17.60;99.90;;;;;;5056513;28;20235;-78
2022/10/14 12:40:26;;;;;;;10.23;9.93;;;17.60;99.90;;;;;;5057623;28;20231;-80
2022/10/14 12:43:04;;;;;;;9.80;9.50;;;17.60;99.90;;;;;;5058413;28;20238;-79
2022/10/14 12:45:35;;;;;;;9.68;9.38;;;17.60;99.90;;;;;;5070330;28;20235;-78
2022/10/14 12:48:14;;;;;;;9.85;9.55;;;17.40;99.90;;;;;;5080790;28;20234;-79
2022/10/14 12:50:42;;;;;;;9.63;9.32;;;17.40;99.90;;;;;;5083089;28;20674;-79
2022/10/14 12:53:22;;;;;;;9.30;9.00;;;17.40;99.90;;;;;;5076834;28;20240;-79
2022/10/14 12:55:53;;;;;;;9.27;8.98;;;17.30;99.90;;;;;;5074267;28;20229;-79
2022/10/14 12:58:30;;;;;;;9.07;8.85;;;17.30;99.90;;;;;;5087115;28;20292;-79
2022/10/14 13:01:05;;;;;;;9.50;9.20;;;17.40;99.90;;;;;;5089497;28;20227;-79
2022/10/14 13:03:40;;;;;;;9.35;9.05;;;17.40;99.90;;;;;;5078121;28;20768;-80
2022/10/14 13:06:37;;;;;;;9.15;8.85;;;17.50;99.90;;;;;;5077056;28;20229;-79
2022/10/14 13:09:33;;;;;;;8.70;8.50;;;17.40;99.90;;;;;;5085200;28;20214;-80
2022/10/14 13:12:45;;;;;;;9.05;8.85;;;17.30;99.90;;;;;;5077070;28;20282;-80
2022/10/14 13:15:51;;;;;;;9.38;9.07;;;17.30;99.90;;;;;;5078023;28;20226;-80
2022/10/14 13:18:52;;;;;;;9.55;9.25;;;17.20;99.90;;;;;;5084534;28;20362;-79
2022/10/14 13:21:53;;;;;;;9.10;8.85;;;17.30;99.90;;;;;;5074850;28;20235;-81